createdAt,value
2022-08-22T00:02:46.587Z,3.20
2022-08-22T00:03:15.188Z,6.62
2022-08-22T00:05:54.850Z,7.78
2022-08-22T00:08:41.237Z,8.05
2022-08-22T00:11:28.378Z,8.55
2022-08-22T00:14:15.689Z,8.73
2022-08-22T00:17:02.746Z,9.23
2022-08-22T00:19:46.530Z,9.63
2022-08-22T00:22:38.096Z,9.70
2022-08-22T00:25:41.917Z,11.88
2022-08-22T00:28:26.240Z,11.73
2022-08-22T00:31:19.350Z,12.18
2022-08-22T00:34:16.824Z,12.35
2022-08-22T00:37:09.697Z,12.13
2022-08-22T00:39:50.955Z,13.03
2022-08-22T00:42:38.455Z,12.85
2022-08-22T00:45:23.345Z,14.47
2022-08-22T00:48:14.781Z,14.78
2022-08-22T00:50:53.007Z,14.40
2022-08-22T00:53:28.509Z,14.10
2022-08-22T00:56:38.298Z,15.18
2022-08-22T00:59:35.952Z,16.70
2022-08-22T01:02:22.990Z,15.68
2022-08-22T01:05:01.103Z,16.17
2022-08-22T01:07:39.078Z,17.05
2022-08-22T01:10:15.062Z,17.35
2022-08-22T01:12:59.240Z,18.15
2022-08-22T01:15:34.450Z,18.10
2022-08-22T01:18:39.530Z,18.48
2022-08-22T01:21:24.325Z,19.15
2022-08-22T01:24:16.216Z,18.85
2022-08-22T01:27:24.175Z,18.62
2022-08-22T01:30:08.185Z,18.35
2022-08-22T01:33:04.261Z,20.00
2022-08-22T01:35:45.109Z,19.67
2022-08-22T01:38:42.534Z,20.02
2022-08-22T01:41:36.907Z,19.80
2022-08-22T01:44:18.089Z,17.00
2022-08-22T01:46:56.351Z,16.97
2022-08-22T01:49:40.339Z,16.00
2022-08-22T01:52:36.269Z,17.85
2022-08-22T01:55:14.359Z,19.27
2022-08-22T01:58:04.225Z,19.12
2022-08-22T02:00:39.192Z,18.12
2022-08-22T02:03:26.329Z,19.55
2022-08-22T02:06:16.275Z,18.77
2022-08-22T02:09:09.794Z,19.15
2022-08-22T02:11:47.555Z,18.12
2022-08-22T02:14:27.067Z,18.27
2022-08-22T02:17:20.021Z,18.05
2022-08-22T02:20:00.980Z,18.48
2022-08-22T02:22:57.650Z,18.32
2022-08-22T02:25:32.840Z,18.17
2022-08-22T02:28:13.689Z,17.73
2022-08-22T02:30:57.610Z,19.55
2022-08-22T02:33:53.178Z,22.13
2022-08-22T02:36:37.464Z,22.22
2022-08-22T02:39:30.735Z,24.80
2022-08-22T02:42:23.828Z,22.52
2022-08-22T02:45:21.895Z,23.02
2022-08-22T02:48:14.672Z,22.25
2022-08-22T02:50:55.269Z,22.93
2022-08-22T02:53:52.788Z,22.48
2022-08-22T02:56:27.723Z,23.98
2022-08-22T02:59:14.893Z,21.87
2022-08-22T03:01:48.902Z,23.47
2022-08-22T03:04:27.131Z,24.85
2022-08-22T03:07:16.959Z,25.17
2022-08-22T03:10:11.107Z,25.15
2022-08-22T03:13:04.533Z,25.77
2022-08-22T03:15:39.641Z,26.20
2022-08-22T03:18:19.477Z,26.90
2022-08-22T03:20:54.901Z,26.10
2022-08-22T03:23:41.913Z,25.75
2022-08-22T03:26:20.354Z,26.97
2022-08-22T03:28:59.861Z,27.32
2022-08-22T03:31:32.898Z,28.27
2022-08-22T03:34:27.150Z,26.55
2022-08-22T03:37:02.304Z,27.33
2022-08-22T03:40:01.494Z,26.45
2022-08-22T03:42:58.122Z,27.27
2022-08-22T03:45:51.486Z,27.42
2022-08-22T03:48:36.865Z,28.53
2022-08-22T03:51:21.489Z,27.37
2022-08-22T03:54:30.538Z,27.13
2022-08-22T03:57:27.738Z,26.48
2022-08-22T04:00:33.900Z,26.57
2022-08-22T04:03:08.908Z,26.77
2022-08-22T04:05:54.433Z,25.82
2022-08-22T04:08:43.782Z,26.15
2022-08-22T04:11:27.215Z,26.60
2022-08-22T04:14:21.580Z,25.30
2022-08-22T04:17:21.376Z,27.10
2022-08-22T04:20:27.925Z,27.50
2022-08-22T04:23:11.742Z,26.40
2022-08-22T04:25:56.108Z,27.42
2022-08-22T04:28:41.643Z,27.42
2022-08-22T04:31:17.712Z,28.40
2022-08-22T04:34:04.495Z,28.02
2022-08-22T04:36:48.905Z,28.07
2022-08-22T04:39:38.943Z,29.35
2022-08-22T04:42:36.904Z,29.42
2022-08-22T04:44:59.097Z,29.75
2022-08-22T04:47:39.012Z,31.45
2022-08-22T04:50:24.638Z,30.25
2022-08-22T04:53:15.504Z,31.40
2022-08-22T04:56:07.702Z,31.20
2022-08-22T04:59:00.629Z,31.33
2022-08-22T05:01:49.973Z,30.32
2022-08-22T05:04:28.063Z,32.17
2022-08-22T05:07:09.280Z,32.10
2022-08-22T05:09:44.463Z,32.13
2022-08-22T05:12:22.522Z,33.15
2022-08-22T05:14:58.083Z,32.45
2022-08-22T05:17:34.393Z,31.35
2022-08-22T05:20:10.338Z,31.55
2022-08-22T05:22:45.582Z,30.27
2022-08-22T05:25:21.009Z,31.70
2022-08-22T05:27:56.754Z,30.25
2022-08-22T05:30:31.494Z,31.42
2022-08-22T05:33:09.265Z,33.30
2022-08-22T05:35:53.435Z,33.92
2022-08-22T05:38:28.026Z,32.95
2022-08-22T05:41:10.936Z,33.28
2022-08-22T05:43:45.222Z,36.38
2022-08-22T05:46:27.312Z,36.83
2022-08-22T05:49:04.008Z,37.50
2022-08-22T05:51:45.178Z,38.88
2022-08-22T05:54:21.747Z,40.65
2022-08-22T05:57:07.814Z,39.40
2022-08-22T05:59:42.053Z,42.15
2022-08-22T06:02:17.104Z,43.00
2022-08-22T06:04:52.077Z,42.08
2022-08-22T06:07:33.103Z,42.05
2022-08-22T06:10:29.858Z,43.45
2022-08-22T06:13:23.577Z,42.62
2022-08-22T06:16:00.368Z,43.38
2022-08-22T06:18:34.196Z,42.80
2022-08-22T06:21:21.231Z,43.08
2022-08-22T06:23:59.393Z,42.75
2022-08-22T06:26:35.310Z,43.30
2022-08-22T06:29:10.577Z,42.70
2022-08-22T06:31:50.725Z,41.08
2022-08-22T06:34:33.723Z,43.08
2022-08-22T06:37:10.028Z,40.80
2022-08-22T06:39:46.155Z,40.28
2022-08-22T06:42:22.983Z,43.48
2022-08-22T06:44:58.658Z,44.88
2022-08-22T06:47:35.957Z,42.43
2022-08-22T06:50:14.504Z,42.00
2022-08-22T06:52:59.717Z,42.53
2022-08-22T06:55:33.167Z,43.65
2022-08-22T06:58:23.886Z,42.45
2022-08-22T07:01:12.270Z,41.37
2022-08-22T07:03:48.353Z,42.00
2022-08-22T07:06:31.325Z,43.87
2022-08-22T07:09:06.912Z,43.33
2022-08-22T07:11:43.232Z,42.65
2022-08-22T07:14:18.155Z,44.03
2022-08-22T07:16:57.441Z,44.70
2022-08-22T07:19:41.885Z,44.67
2022-08-22T07:22:20.141Z,45.28
2022-08-22T07:25:01.262Z,45.45
2022-08-22T07:27:48.850Z,45.03
2022-08-22T07:30:28.166Z,42.35
2022-08-22T07:33:25.781Z,41.20
2022-08-22T07:35:53.285Z,37.08
2022-08-22T07:38:31.335Z,36.77
2022-08-22T07:41:27.600Z,38.10
2022-08-22T07:44:06.801Z,45.05
2022-08-22T07:46:43.026Z,42.78
2022-08-22T07:49:24.838Z,36.58
2022-08-22T07:52:00.292Z,34.67
2022-08-22T07:54:44.820Z,33.23
2022-08-22T07:57:29.966Z,34.50
2022-08-22T08:00:04.522Z,33.02
2022-08-22T08:02:42.365Z,35.65
2022-08-22T08:05:16.391Z,35.58
2022-08-22T08:07:52.862Z,34.03
2022-08-22T08:10:31.763Z,35.33
2022-08-22T08:13:06.811Z,34.20
2022-08-22T08:15:42.753Z,35.73
2022-08-22T08:18:19.602Z,37.28
2022-08-22T08:20:55.975Z,40.90
2022-08-22T08:23:31.492Z,42.80
2022-08-22T08:26:06.589Z,47.30
2022-08-22T08:28:44.825Z,48.10
2022-08-22T08:31:23.901Z,45.95
2022-08-22T08:34:06.171Z,52.93
2022-08-22T08:36:41.729Z,54.60
2022-08-22T08:39:35.153Z,58.02
2022-08-22T08:42:18.561Z,55.98
2022-08-22T08:44:54.821Z,53.50
2022-08-22T08:47:45.040Z,54.90
2022-08-22T08:50:43.286Z,56.25
2022-08-22T08:53:44.257Z,51.45
2022-08-22T08:56:29.005Z,52.10
2022-08-22T08:59:20.799Z,47.98
2022-08-22T09:02:23.903Z,48.60
2022-08-22T09:05:05.580Z,47.75
2022-08-22T09:07:44.334Z,49.67
2022-08-22T09:10:43.554Z,48.78
2022-08-22T09:13:28.404Z,50.65
2022-08-22T09:16:09.930Z,50.38
2022-08-22T09:18:51.814Z,50.98
2022-08-22T09:21:31.440Z,37.08
2022-08-22T09:24:23.449Z,34.10
2022-08-22T09:27:08.764Z,41.50
2022-08-22T09:32:33.907Z,35.60
2022-08-22T09:35:31.239Z,22.77
2022-08-22T09:38:23.906Z,23.55
2022-08-22T09:41:05.354Z,24.80
2022-08-22T09:43:44.101Z,27.15
2022-08-22T09:46:31.617Z,29.98
2022-08-22T09:49:16.558Z,32.15
2022-08-22T09:52:04.820Z,33.00
2022-08-22T09:54:39.270Z,32.60
2022-08-22T09:57:23.657Z,29.98
2022-08-22T10:00:10.841Z,27.15
2022-08-22T10:03:14.666Z,29.80
2022-08-22T10:06:10.240Z,27.70
2022-08-22T10:08:50.765Z,24.82
2022-08-22T10:11:46.873Z,24.72
2022-08-22T10:14:31.433Z,22.85
2022-08-22T10:17:22.324Z,23.10
2022-08-22T10:19:58.813Z,21.00
2022-08-22T10:22:47.689Z,22.73
2022-08-22T10:25:32.363Z,21.37
2022-08-22T10:28:23.132Z,21.65
2022-08-22T10:31:17.019Z,17.92
2022-08-22T10:34:09.478Z,15.50
2022-08-22T10:36:53.293Z,15.53
2022-08-22T10:39:30.210Z,15.88
2022-08-22T10:42:09.917Z,16.65
2022-08-22T10:45:00.399Z,18.35
2022-08-22T10:47:42.857Z,19.87
2022-08-22T10:50:20.173Z,20.43
2022-08-22T10:53:19.337Z,16.35
2022-08-22T10:55:57.001Z,15.48
2022-08-22T10:58:32.441Z,16.40
2022-08-22T11:01:37.141Z,16.60
2022-08-22T11:03:55.761Z,17.65
2022-08-22T11:06:33.733Z,17.35
2022-08-22T11:09:35.812Z,15.58
2022-08-22T11:12:19.393Z,14.30
2022-08-22T11:15:08.072Z,13.45
2022-08-22T11:18:07.477Z,13.43
2022-08-22T11:21:02.425Z,14.45
2022-08-22T11:23:46.396Z,11.97
2022-08-22T11:26:50.465Z,11.28
2022-08-22T11:29:25.829Z,12.05
2022-08-22T11:32:19.449Z,10.68
2022-08-22T11:35:01.153Z,9.70
2022-08-22T11:37:48.870Z,9.93
2022-08-22T11:40:25.918Z,8.50
2022-08-22T11:43:03.161Z,9.80
2022-08-22T11:45:38.259Z,6.67
2022-08-22T11:48:18.874Z,7.90
2022-08-22T11:51:00.385Z,8.45
2022-08-22T11:53:41.460Z,8.93
2022-08-22T11:56:19.744Z,7.40
2022-08-22T11:59:04.227Z,8.30
2022-08-22T12:01:45.652Z,6.17
2022-08-22T12:04:23.754Z,5.58
2022-08-22T12:07:17.515Z,6.33
2022-08-22T12:10:15.856Z,8.23
2022-08-22T12:12:50.907Z,6.50
2022-08-22T12:15:41.223Z,5.67
2022-08-22T12:18:31.184Z,5.42
2022-08-22T12:21:11.570Z,5.67
2022-08-22T12:23:50.355Z,6.80
2022-08-22T12:26:37.859Z,7.42
2022-08-22T12:29:27.560Z,8.40
2022-08-22T12:32:32.340Z,6.90
2022-08-22T12:35:15.540Z,6.92
2022-08-22T12:38:28.823Z,6.37
2022-08-22T12:41:08.192Z,6.92
2022-08-22T12:43:57.131Z,6.92
2022-08-22T12:46:47.419Z,7.47
2022-08-22T12:49:30.271Z,7.03
2022-08-22T12:52:11.379Z,6.83
2022-08-22T12:54:49.707Z,7.72
2022-08-22T12:57:34.272Z,6.97
2022-08-22T13:02:53.128Z,6.08
2022-08-22T13:05:28.337Z,5.12
2022-08-22T13:08:06.615Z,4.67
2022-08-22T13:10:50.940Z,5.50
2022-08-22T13:16:17.608Z,3.80
2022-08-22T13:19:07.777Z,3.00
2022-08-22T13:21:40.788Z,4.03
2022-08-22T13:24:38.577Z,4.10
2022-08-22T13:26:59.589Z,2.98
2022-08-22T13:29:39.442Z,2.92
2022-08-22T13:32:14.809Z,3.20
2022-08-22T13:34:50.045Z,3.25
2022-08-22T13:37:28.361Z,2.47
2022-08-22T13:40:03.792Z,3.02
2022-08-22T13:42:39.958Z,2.25
2022-08-22T13:45:24.394Z,2.62
2022-08-22T13:48:03.515Z,2.55
2022-08-22T13:50:52.894Z,2.47
2022-08-22T13:53:15.290Z,2.85
2022-08-22T13:55:55.514Z,2.30
2022-08-22T13:58:40.330Z,3.70
2022-08-22T14:01:31.199Z,3.15
2022-08-22T14:04:36.271Z,2.90
2022-08-22T14:07:13.455Z,9.88
2022-08-22T14:09:53.300Z,4.85
2022-08-22T14:12:33.560Z,5.30
2022-08-22T14:15:10.690Z,8.55
2022-08-22T14:17:48.253Z,7.92
2022-08-22T14:20:32.668Z,3.65
2022-08-22T14:23:04.200Z,7.17
2022-08-22T14:25:40.199Z,4.67
2022-08-22T14:28:27.480Z,3.52
2022-08-22T14:31:14.540Z,2.72
2022-08-22T14:34:01.339Z,3.50
2022-08-22T14:36:52.395Z,2.90
2022-08-22T14:39:34.812Z,2.70
2022-08-22T14:42:11.180Z,2.80
2022-08-22T14:45:01.430Z,3.22
2022-08-22T14:48:31.578Z,3.60
2022-08-22T14:50:46.460Z,3.10
2022-08-22T14:53:25.099Z,3.05
2022-08-22T14:56:18.029Z,3.35
2022-08-22T14:58:59.827Z,3.05
2022-08-22T15:01:35.476Z,3.25
2022-08-22T15:04:19.260Z,2.72
2022-08-22T15:06:55.423Z,3.08
2022-08-22T15:09:34.132Z,3.27
2022-08-22T15:12:10.563Z,2.90
2022-08-22T15:14:52.213Z,2.98
2022-08-22T15:17:44.147Z,2.60
2022-08-22T15:20:27.789Z,3.65
2022-08-22T15:23:12.148Z,2.75
2022-08-22T15:25:48.303Z,2.42
2022-08-22T15:28:22.934Z,3.00
2022-08-22T15:31:04.014Z,2.95
2022-08-22T15:33:45.450Z,2.60
2022-08-22T15:36:27.791Z,2.40
2022-08-22T15:39:32.367Z,2.75
2022-08-22T15:42:07.043Z,2.75
2022-08-22T15:47:36.241Z,3.12
2022-08-22T15:50:15.439Z,2.80
2022-08-22T15:53:11.462Z,2.98
2022-08-22T15:56:06.948Z,3.25
2022-08-22T15:58:48.110Z,3.35
2022-08-22T16:01:24.864Z,3.58
2022-08-22T16:04:06.067Z,2.87
2022-08-22T16:06:58.250Z,3.00
2022-08-22T16:09:43.554Z,3.85
2022-08-22T16:12:34.944Z,2.55
2022-08-22T16:15:10.682Z,3.52
2022-08-22T16:17:47.125Z,3.00
2022-08-22T16:20:24.607Z,3.00
2022-08-22T16:23:03.295Z,3.22
2022-08-22T16:25:50.563Z,3.02
2022-08-22T16:28:57.355Z,3.00
2022-08-22T16:31:27.658Z,3.62
2022-08-22T16:34:18.340Z,2.50
2022-08-22T16:37:11.036Z,3.40
2022-08-22T16:40:08.428Z,3.17
2022-08-22T16:42:48.542Z,4.00
2022-08-22T16:45:35.865Z,3.05
2022-08-22T16:48:33.544Z,2.90
2022-08-22T16:51:12.131Z,4.25
2022-08-22T16:54:09.543Z,3.72
2022-08-22T16:56:50.826Z,3.50
2022-08-22T16:59:25.920Z,2.90
2022-08-22T17:02:07.121Z,2.80
2022-08-22T17:04:48.312Z,2.90
2022-08-22T17:07:46.497Z,2.85
2022-08-22T17:10:42.567Z,2.92
2022-08-22T17:13:33.057Z,3.72
2022-08-22T17:16:12.411Z,2.80
2022-08-22T17:18:56.441Z,3.22
2022-08-22T17:21:34.634Z,3.05
2022-08-22T17:24:41.277Z,3.85
2022-08-22T17:27:36.023Z,3.20
2022-08-22T17:30:22.846Z,3.40
2022-08-22T17:33:06.633Z,3.40
2022-08-22T17:36:26.634Z,2.83
2022-08-22T17:39:06.304Z,4.15
2022-08-22T17:41:56.144Z,3.85
2022-08-22T17:44:43.459Z,4.10
2022-08-22T17:47:20.532Z,15.48
2022-08-22T17:50:00.726Z,3.37
2022-08-22T17:52:39.117Z,3.35
2022-08-22T17:55:41.158Z,4.20
2022-08-22T17:58:35.691Z,3.20
2022-08-22T18:00:55.389Z,3.10
2022-08-22T18:03:36.330Z,4.47
2022-08-22T18:06:26.656Z,3.50
2022-08-22T18:09:17.079Z,3.50
2022-08-22T18:11:59.335Z,3.12
2022-08-22T18:14:49.825Z,4.28
2022-08-22T18:17:30.499Z,4.22
2022-08-22T18:20:11.277Z,3.52
2022-08-22T18:22:49.429Z,4.05
2022-08-22T18:25:24.506Z,2.87
2022-08-22T18:28:17.519Z,3.83
2022-08-22T18:31:04.393Z,3.47
2022-08-22T18:33:42.539Z,3.42
2022-08-22T18:36:34.172Z,3.40
2022-08-22T18:39:18.453Z,3.62
2022-08-22T18:42:02.803Z,4.30
2022-08-22T18:44:38.900Z,3.40
2022-08-22T18:47:20.007Z,3.42
2022-08-22T18:49:54.814Z,3.10
2022-08-22T18:52:29.910Z,3.17
2022-08-22T18:55:24.365Z,3.20
2022-08-22T18:58:15.909Z,4.13
2022-08-22T19:00:54.050Z,4.28
2022-08-22T19:03:57.719Z,3.27
2022-08-22T19:06:56.897Z,3.45
2022-08-22T19:09:44.635Z,3.70
2022-08-22T19:12:28.685Z,3.58
2022-08-22T19:15:16.006Z,4.10
2022-08-22T19:17:59.483Z,3.60
2022-08-22T19:20:51.769Z,4.00
2022-08-22T19:23:40.380Z,3.67
2022-08-22T19:26:33.727Z,4.25
2022-08-22T19:29:22.593Z,3.95
2022-08-22T19:31:57.893Z,4.00
2022-08-22T19:34:33.258Z,4.22
2022-08-22T19:37:30.545Z,4.42
2022-08-22T19:40:00.611Z,4.42
2022-08-22T19:42:35.313Z,4.47
2022-08-22T19:45:10.296Z,4.30
2022-08-22T19:47:44.494Z,4.95
2022-08-22T19:50:23.248Z,4.50
2022-08-22T19:53:01.563Z,4.30
2022-08-22T19:55:42.724Z,4.25
2022-08-22T19:58:31.047Z,4.42
2022-08-22T20:01:00.723Z,5.03
2022-08-22T20:03:37.614Z,5.37
2022-08-22T20:06:40.612Z,4.70
2022-08-22T20:09:22.346Z,5.85
2022-08-22T20:12:03.510Z,6.20
2022-08-22T20:14:38.203Z,5.45
2022-08-22T20:17:13.521Z,6.42
2022-08-22T20:22:31.397Z,6.58
2022-08-22T20:25:35.385Z,6.83
2022-08-22T20:27:48.116Z,6.65
2022-08-22T20:30:30.015Z,8.00
2022-08-22T20:33:10.917Z,6.75
2022-08-22T20:35:46.384Z,7.00
2022-08-22T20:38:21.527Z,7.28
2022-08-22T20:41:22.080Z,7.25
2022-08-22T20:44:00.173Z,7.60
2022-08-22T20:46:57.675Z,7.45
2022-08-22T20:49:45.270Z,7.45
2022-08-22T20:52:29.247Z,7.53
2022-08-22T20:55:19.505Z,7.67
2022-08-22T20:57:58.046Z,7.55
2022-08-22T21:00:49.239Z,7.83
2022-08-22T21:03:45.347Z,7.05
2022-08-22T21:06:20.839Z,8.20
2022-08-22T21:08:56.530Z,7.55
2022-08-22T21:11:43.239Z,8.70
2022-08-22T21:14:24.340Z,7.30
2022-08-22T21:16:56.488Z,7.70
2022-08-22T21:19:32.649Z,7.55
2022-08-22T21:22:19.997Z,8.70
2022-08-22T21:24:52.096Z,8.03
2022-08-22T21:27:33.169Z,8.80
2022-08-22T21:30:08.829Z,8.63
2022-08-22T21:32:46.710Z,8.65
2022-08-22T21:35:33.865Z,9.95
2022-08-22T21:38:06.662Z,8.45
2022-08-22T21:40:39.869Z,8.75
2022-08-22T21:43:14.671Z,9.80
2022-08-22T21:45:46.971Z,9.78
2022-08-22T21:48:36.817Z,9.93
2022-08-22T21:51:40.455Z,10.13
2022-08-22T21:54:31.995Z,10.70
2022-08-22T21:57:12.937Z,11.43
2022-08-22T21:59:59.405Z,11.75
2022-08-22T22:02:37.453Z,12.00
2022-08-22T22:05:12.830Z,13.70
2022-08-22T22:07:46.424Z,13.08
2022-08-22T22:10:22.712Z,14.23
2022-08-22T22:12:58.712Z,13.38
2022-08-22T22:15:33.768Z,15.23
2022-08-22T22:18:06.846Z,16.32
2022-08-22T22:20:39.977Z,14.60
2022-08-22T22:23:12.101Z,16.07
2022-08-22T22:25:45.711Z,15.72
2022-08-22T22:28:23.694Z,16.00
2022-08-22T22:30:56.073Z,15.58
2022-08-22T22:33:31.017Z,16.37
2022-08-22T22:36:05.935Z,15.75
2022-08-22T22:38:41.349Z,16.27
2022-08-22T22:41:14.260Z,15.98
2022-08-22T22:43:47.556Z,16.62
2022-08-22T22:46:19.680Z,15.90
2022-08-22T22:48:52.078Z,16.77
2022-08-22T22:51:24.438Z,16.00
2022-08-22T22:53:57.929Z,16.62
2022-08-22T22:56:30.089Z,17.02
2022-08-22T22:59:13.262Z,17.07
2022-08-22T23:01:35.954Z,15.83
2022-08-22T23:04:08.284Z,16.65
2022-08-22T23:06:40.348Z,16.73
2022-08-22T23:09:12.365Z,16.50
2022-08-22T23:11:46.170Z,16.65
2022-08-22T23:14:18.366Z,15.20
2022-08-22T23:16:50.718Z,16.52
2022-08-22T23:19:22.964Z,16.23
2022-08-22T23:21:57.147Z,16.35
2022-08-22T23:24:31.227Z,17.75
2022-08-22T23:27:06.236Z,15.65
2022-08-22T23:29:42.250Z,16.17
2022-08-22T23:32:15.339Z,16.85
2022-08-22T23:34:48.890Z,16.48
2022-08-22T23:37:23.190Z,15.93
2022-08-22T23:42:26.983Z,16.12
2022-08-22T23:44:58.997Z,16.42
2022-08-22T23:47:31.444Z,15.63
2022-08-22T23:50:06.149Z,16.37
2022-08-22T23:52:37.203Z,16.37
2022-08-22T23:55:09.735Z,16.48
2022-08-22T23:57:41.830Z,16.52
